sensor_id;sensor_type;location;lat;lon;timestamp;pressure;altitude;pressure_sealevel;temperature;humidity
57568;BME280;43403;51.948;5.922;2022-09-06T00:00:33;101579.97;;;23.34;83.36
57568;BME280;43403;51.948;5.922;2022-09-06T00:03:00;101580.81;;;23.27;85.39
57568;BME280;43403;51.948;5.922;2022-09-06T00:05:27;101578.41;;;23.19;86.03
57568;BME280;43403;51.948;5.922;2022-09-06T00:07:56;101583.13;;;23.17;85.72
57568;BME280;43403;51.948;5.922;2022-09-06T00:10:23;101573.66;;;23.15;85.84
57568;BME280;43403;51.948;5.922;2022-09-06T00:12:49;101580.47;;;23.10;86.30
57568;BME280;43403;51.948;5.922;2022-09-06T00:15:15;101574.91;;;23.12;84.96
57568;BME280;43403;51.948;5.922;2022-09-06T00:17:42;101576.78;;;23.12;84.78
57568;BME280;43403;51.948;5.922;2022-09-06T00:20:10;101577.59;;;23.12;86.02
57568;BME280;43403;51.948;5.922;2022-09-06T00:22:36;101574.31;;;23.10;86.00
57568;BME280;43403;51.948;5.922;2022-09-06T00:25:03;101577.78;;;23.10;86.06
57568;BME280;43403;51.948;5.922;2022-09-06T00:27:30;101575.53;;;23.14;85.12
57568;BME280;43403;51.948;5.922;2022-09-06T00:29:57;101570.38;;;23.13;85.44
57568;BME280;43403;51.948;5.922;2022-09-06T00:32:23;101572.63;;;23.16;86.20
57568;BME280;43403;51.948;5.922;2022-09-06T00:34:50;101565.41;;;23.16;86.07
57568;BME280;43403;51.948;5.922;2022-09-06T00:37:16;101551.84;;;23.18;84.91
57568;BME280;43403;51.948;5.922;2022-09-06T00:39:43;101545.22;;;23.20;85.87
57568;BME280;43403;51.948;5.922;2022-09-06T00:42:10;101538.22;;;23.26;84.29
57568;BME280;43403;51.948;5.922;2022-09-06T00:44:37;101539.41;;;23.30;83.93
57568;BME280;43403;51.948;5.922;2022-09-06T00:47:04;101532.84;;;23.33;85.19
57568;BME280;43403;51.948;5.922;2022-09-06T00:49:33;101530.16;;;23.33;85.21
57568;BME280;43403;51.948;5.922;2022-09-06T00:52:02;101538.81;;;23.28;89.07
57568;BME280;43403;51.948;5.922;2022-09-06T00:54:28;101540.88;;;23.26;89.68
57568;BME280;43403;51.948;5.922;2022-09-06T00:56:55;101545.44;;;23.19;91.26
57568;BME280;43403;51.948;5.922;2022-09-06T00:59:23;101570.78;;;23.16;93.32
57568;BME280;43403;51.948;5.922;2022-09-06T01:01:50;101575.97;;;23.11;92.13
57568;BME280;43403;51.948;5.922;2022-09-06T01:04:16;101595.50;;;23.12;91.50
57568;BME280;43403;51.948;5.922;2022-09-06T01:07:03;101587.88;;;23.02;93.76
57568;BME280;43403;51.948;5.922;2022-09-06T01:09:35;101591.81;;;22.99;100.00
57568;BME280;43403;51.948;5.922;2022-09-06T01:20:11;101620.47;;;22.72;100.00
57568;BME280;43403;51.948;5.922;2022-09-06T01:30:50;101620.66;;;22.44;100.00
57568;BME280;43403;51.948;5.922;2022-09-06T01:33:21;101626.66;;;22.33;100.00
57568;BME280;43403;51.948;5.922;2022-09-06T01:36:00;101642.00;;;22.10;100.00
57568;BME280;43403;51.948;5.922;2022-09-06T01:38:28;101634.16;;;21.96;100.00
57568;BME280;43403;51.948;5.922;2022-09-06T01:40:54;101635.59;;;21.91;100.00
57568;BME280;43403;51.948;5.922;2022-09-06T01:43:23;101636.38;;;21.79;100.00
57568;BME280;43403;51.948;5.922;2022-09-06T01:46:10;101642.72;;;21.78;100.00
57568;BME280;43403;51.948;5.922;2022-09-06T01:51:30;101627.94;;;21.75;100.00
57568;BME280;43403;51.948;5.922;2022-09-06T01:54:06;101623.84;;;21.72;100.00
57568;BME280;43403;51.948;5.922;2022-09-06T01:59:31;101604.31;;;21.72;100.00
57568;BME280;43403;51.948;5.922;2022-09-06T02:02:05;101593.03;;;21.70;100.00
57568;BME280;43403;51.948;5.922;2022-09-06T02:07:02;101600.56;;;21.60;100.00
57568;BME280;43403;51.948;5.922;2022-09-06T02:09:32;101591.94;;;21.58;100.00
57568;BME280;43403;51.948;5.922;2022-09-06T02:12:01;101582.72;;;21.60;100.00
57568;BME280;43403;51.948;5.922;2022-09-06T02:14:33;101566.50;;;21.62;100.00
57568;BME280;43403;51.948;5.922;2022-09-06T02:17:01;101541.03;;;21.59;100.00
57568;BME280;43403;51.948;5.922;2022-09-06T02:19:32;101552.53;;;21.60;100.00
57568;BME280;43403;51.948;5.922;2022-09-06T02:22:00;101549.84;;;21.53;100.00
57568;BME280;43403;51.948;5.922;2022-09-06T02:24:29;101540.41;;;21.57;100.00
57568;BME280;43403;51.948;5.922;2022-09-06T02:26:57;101539.19;;;21.60;100.00
57568;BME280;43403;51.948;5.922;2022-09-06T02:29:23;101532.81;;;21.61;100.00
57568;BME280;43403;51.948;5.922;2022-09-06T02:31:55;101526.88;;;21.59;100.00
57568;BME280;43403;51.948;5.922;2022-09-06T02:34:23;101505.09;;;21.62;100.00
57568;BME280;43403;51.948;5.922;2022-09-06T02:36:50;101507.75;;;21.55;100.00
57568;BME280;43403;51.948;5.922;2022-09-06T02:39:16;101492.97;;;21.52;100.00
57568;BME280;43403;51.948;5.922;2022-09-06T02:41:43;101466.25;;;21.46;100.00
57568;BME280;43403;51.948;5.922;2022-09-06T02:44:10;101439.56;;;21.46;100.00
57568;BME280;43403;51.948;5.922;2022-09-06T02:46:36;101418.22;;;21.46;100.00
57568;BME280;43403;51.948;5.922;2022-09-06T02:49:03;101397.72;;;21.53;100.00
57568;BME280;43403;51.948;5.922;2022-09-06T02:51:29;101390.53;;;21.47;100.00
57568;BME280;43403;51.948;5.922;2022-09-06T02:53:56;101368.75;;;21.50;100.00
57568;BME280;43403;51.948;5.922;2022-09-06T02:56:22;101359.50;;;21.46;100.00
57568;BME280;43403;51.948;5.922;2022-09-06T02:58:48;101355.59;;;21.35;100.00
57568;BME280;43403;51.948;5.922;2022-09-06T03:01:15;101352.72;;;21.30;100.00
57568;BME280;43403;51.948;5.922;2022-09-06T03:03:41;101359.06;;;21.22;100.00
57568;BME280;43403;51.948;5.922;2022-09-06T03:06:07;101364.59;;;21.21;100.00
57568;BME280;43403;51.948;5.922;2022-09-06T03:08:34;101374.88;;;21.17;100.00
57568;BME280;43403;51.948;5.922;2022-09-06T03:11:01;101383.03;;;21.02;100.00
57568;BME280;43403;51.948;5.922;2022-09-06T03:13:27;101394.91;;;20.93;100.00
57568;BME280;43403;51.948;5.922;2022-09-06T03:15:55;101397.56;;;20.86;100.00
57568;BME280;43403;51.948;5.922;2022-09-06T03:18:22;101407.56;;;20.78;100.00
57568;BME280;43403;51.948;5.922;2022-09-06T03:20:49;101434.59;;;20.68;100.00
57568;BME280;43403;51.948;5.922;2022-09-06T03:23:19;101431.66;;;20.56;100.00
57568;BME280;43403;51.948;5.922;2022-09-06T03:25:45;101426.13;;;20.58;100.00
57568;BME280;43403;51.948;5.922;2022-09-06T03:28:12;101413.25;;;20.61;100.00
57568;BME280;43403;51.948;5.922;2022-09-06T03:30:39;101424.97;;;20.67;100.00
57568;BME280;43403;51.948;5.922;2022-09-06T03:33:05;101422.31;;;20.67;100.00
57568;BME280;43403;51.948;5.922;2022-09-06T03:35:32;101422.13;;;20.68;100.00
57568;BME280;43403;51.948;5.922;2022-09-06T03:37:58;101425.84;;;20.74;100.00
57568;BME280;43403;51.948;5.922;2022-09-06T03:40:25;101431.78;;;20.76;100.00
57568;BME280;43403;51.948;5.922;2022-09-06T03:42:51;101434.44;;;20.76;100.00
57568;BME280;43403;51.948;5.922;2022-09-06T03:45:17;101437.91;;;20.70;100.00
57568;BME280;43403;51.948;5.922;2022-09-06T03:47:44;101436.69;;;20.79;100.00
57568;BME280;43403;51.948;5.922;2022-09-06T03:50:10;101443.47;;;20.75;100.00
57568;BME280;43403;51.948;5.922;2022-09-06T03:52:36;101444.69;;;20.79;100.00
57568;BME280;43403;51.948;5.922;2022-09-06T03:55:03;101452.06;;;20.70;100.00
57568;BME280;43403;51.948;5.922;2022-09-06T03:57:29;101461.91;;;20.70;100.00
57568;BME280;43403;51.948;5.922;2022-09-06T03:59:56;101461.47;;;20.66;100.00
57568;BME280;43403;51.948;5.922;2022-09-06T04:02:22;101465.97;;;20.66;100.00
57568;BME280;43403;51.948;5.922;2022-09-06T04:04:48;101479.91;;;20.68;100.00
57568;BME280;43403;51.948;5.922;2022-09-06T04:07:15;101478.25;;;20.60;100.00
57568;BME280;43403;51.948;5.922;2022-09-06T04:09:41;101468.59;;;20.59;100.00
57568;BME280;43403;51.948;5.922;2022-09-06T04:12:07;101464.53;;;20.63;100.00
57568;BME280;43403;51.948;5.922;2022-09-06T04:14:34;101463.53;;;20.64;100.00
57568;BME280;43403;51.948;5.922;2022-09-06T04:17:00;101460.63;;;20.66;100.00
57568;BME280;43403;51.948;5.922;2022-09-06T04:19:26;101462.47;;;20.65;100.00
57568;BME280;43403;51.948;5.922;2022-09-06T04:21:53;101467.00;;;20.65;100.00
57568;BME280;43403;51.948;5.922;2022-09-06T04:24:19;101471.72;;;20.63;100.00
57568;BME280;43403;51.948;5.922;2022-09-06T04:26:45;101468.22;;;20.62;100.00
57568;BME280;43403;51.948;5.922;2022-09-06T04:29:11;101473.75;;;20.61;100.00
57568;BME280;43403;51.948;5.922;2022-09-06T04:31:38;101460.59;;;20.59;100.00
57568;BME280;43403;51.948;5.922;2022-09-06T04:34:04;101457.94;;;20.59;100.00
57568;BME280;43403;51.948;5.922;2022-09-06T04:36:31;101456.47;;;20.57;100.00
57568;BME280;43403;51.948;5.922;2022-09-06T04:38:57;101463.00;;;20.54;100.00
57568;BME280;43403;51.948;5.922;2022-09-06T04:41:23;101459.69;;;20.45;100.00
57568;BME280;43403;51.948;5.922;2022-09-06T04:43:50;101474.84;;;20.45;100.00
57568;BME280;43403;51.948;5.922;2022-09-06T04:46:18;101476.69;;;20.44;100.00
57568;BME280;43403;51.948;5.922;2022-09-06T04:48:45;101472.63;;;20.48;100.00
57568;BME280;43403;51.948;5.922;2022-09-06T04:51:12;101467.94;;;20.50;100.00
57568;BME280;43403;51.948;5.922;2022-09-06T04:53:38;101468.75;;;20.51;100.00
57568;BME280;43403;51.948;5.922;2022-09-06T04:56:05;101464.41;;;20.50;100.00
57568;BME280;43403;51.948;5.922;2022-09-06T04:58:31;101470.78;;;20.49;100.00
57568;BME280;43403;51.948;5.922;2022-09-06T05:00:57;101472.81;;;20.47;100.00
57568;BME280;43403;51.948;5.922;2022-09-06T05:03:24;101476.69;;;20.44;100.00
57568;BME280;43403;51.948;5.922;2022-09-06T05:05:50;101476.69;;;20.44;100.00
57568;BME280;43403;51.948;5.922;2022-09-06T05:08:16;101478.78;;;20.49;100.00
57568;BME280;43403;51.948;5.922;2022-09-06T05:10:43;101482.69;;;20.53;100.00
57568;BME280;43403;51.948;5.922;2022-09-06T05:13:10;101484.31;;;20.54;100.00
57568;BME280;43403;51.948;5.922;2022-09-06T05:15:36;101489.47;;;20.55;100.00
57568;BME280;43403;51.948;5.922;2022-09-06T05:18:03;101492.13;;;20.55;100.00
57568;BME280;43403;51.948;5.922;2022-09-06T05:20:30;101492.09;;;20.49;100.00
57568;BME280;43403;51.948;5.922;2022-09-06T05:22:56;101489.63;;;20.47;100.00
57568;BME280;43403;51.948;5.922;2022-09-06T05:25:22;101493.06;;;20.41;100.00
57568;BME280;43403;51.948;5.922;2022-09-06T05:27:49;101496.97;;;20.39;100.00
57568;BME280;43403;51.948;5.922;2022-09-06T05:30:15;101498.22;;;20.43;100.00
57568;BME280;43403;51.948;5.922;2022-09-06T05:32:43;101502.91;;;20.41;100.00
57568;BME280;43403;51.948;5.922;2022-09-06T05:35:09;101508.81;;;20.36;100.00
57568;BME280;43403;51.948;5.922;2022-09-06T05:37:35;101509.84;;;20.35;100.00
57568;BME280;43403;51.948;5.922;2022-09-06T05:40:02;101521.50;;;20.34;100.00
57568;BME280;43403;51.948;5.922;2022-09-06T05:42:28;101528.50;;;20.35;100.00
57568;BME280;43403;51.948;5.922;2022-09-06T05:44:55;101534.44;;;20.37;100.00
57568;BME280;43403;51.948;5.922;2022-09-06T05:47:21;101531.97;;;20.35;100.00
57568;BME280;43403;51.948;5.922;2022-09-06T05:49:47;101539.00;;;20.43;100.00
57568;BME280;43403;51.948;5.922;2022-09-06T05:52:15;101538.41;;;20.48;100.00
57568;BME280;43403;51.948;5.922;2022-09-06T05:54:42;101541.50;;;20.51;100.00
57568;BME280;43403;51.948;5.922;2022-09-06T05:57:08;101549.13;;;20.54;100.00
57568;BME280;43403;51.948;5.922;2022-09-06T05:59:35;101548.50;;;20.52;100.00
57568;BME280;43403;51.948;5.922;2022-09-06T06:02:01;101554.06;;;20.58;100.00
57568;BME280;43403;51.948;5.922;2022-09-06T06:04:32;101551.22;;;20.59;100.00
57568;BME280;43403;51.948;5.922;2022-09-06T06:06:58;101551.56;;;20.56;100.00
57568;BME280;43403;51.948;5.922;2022-09-06T06:09:25;101555.66;;;20.52;100.00
57568;BME280;43403;51.948;5.922;2022-09-06T06:11:51;101557.25;;;20.46;100.00
57568;BME280;43403;51.948;5.922;2022-09-06T06:14:18;101569.28;;;20.35;100.00
57568;BME280;43403;51.948;5.922;2022-09-06T06:16:44;101559.38;;;20.29;100.00
57568;BME280;43403;51.948;5.922;2022-09-06T06:19:10;101549.94;;;20.27;100.00
57568;BME280;43403;51.948;5.922;2022-09-06T06:21:37;101565.97;;;20.33;100.00
57568;BME280;43403;51.948;5.922;2022-09-06T06:24:04;101557.16;;;20.33;100.00
57568;BME280;43403;51.948;5.922;2022-09-06T06:26:32;101567.75;;;20.26;100.00
57568;BME280;43403;51.948;5.922;2022-09-06T06:28:58;101560.97;;;20.24;100.00
57568;BME280;43403;51.948;5.922;2022-09-06T06:31:28;101560.78;;;20.25;100.00
57568;BME280;43403;51.948;5.922;2022-09-06T06:33:54;101558.69;;;20.21;100.00
57568;BME280;43403;51.948;5.922;2022-09-06T06:36:21;101552.81;;;20.25;100.00
57568;BME280;43403;51.948;5.922;2022-09-06T06:38:49;101560.38;;;20.28;100.00
57568;BME280;43403;51.948;5.922;2022-09-06T06:41:17;101559.56;;;20.28;100.00
57568;BME280;43403;51.948;5.922;2022-09-06T06:43:43;101565.88;;;20.20;100.00
57568;BME280;43403;51.948;5.922;2022-09-06T06:46:11;101560.16;;;20.23;100.00
57568;BME280;43403;51.948;5.922;2022-09-06T06:48:38;101550.59;;;20.29;100.00
57568;BME280;43403;51.948;5.922;2022-09-06T06:51:12;101552.84;;;20.32;100.00
57568;BME280;43403;51.948;5.922;2022-09-06T06:53:39;101553.28;;;20.35;100.00
57568;BME280;43403;51.948;5.922;2022-09-06T06:58:51;101544.69;;;20.40;100.00
57568;BME280;43403;51.948;5.922;2022-09-06T07:01:19;101541.41;;;20.38;100.00
57568;BME280;43403;51.948;5.922;2022-09-06T07:03:45;101547.59;;;20.39;100.00
57568;BME280;43403;51.948;5.922;2022-09-06T07:06:12;101531.81;;;20.44;100.00
57568;BME280;43403;51.948;5.922;2022-09-06T07:08:39;101531.19;;;20.42;100.00
57568;BME280;43403;51.948;5.922;2022-09-06T07:11:06;101522.66;;;20.53;100.00
57568;BME280;43403;51.948;5.922;2022-09-06T07:13:33;101523.91;;;20.57;100.00
57568;BME280;43403;51.948;5.922;2022-09-06T07:16:09;101522.53;;;20.61;100.00
57568;BME280;43403;51.948;5.922;2022-09-06T07:18:37;101516.41;;;20.67;100.00
57568;BME280;43403;51.948;5.922;2022-09-06T07:21:16;101518.69;;;20.70;100.00
57568;BME280;43403;51.948;5.922;2022-09-06T07:24:04;101511.13;;;20.74;100.00
57568;BME280;43403;51.948;5.922;2022-09-06T07:26:32;101507.06;;;20.78;100.00
57568;BME280;43403;51.948;5.922;2022-09-06T07:28:59;101502.78;;;20.84;100.00
57568;BME280;43403;51.948;5.922;2022-09-06T07:31:26;101511.19;;;20.87;100.00
57568;BME280;43403;51.948;5.922;2022-09-06T07:34:12;101513.47;;;20.90;100.00
57568;BME280;43403;51.948;5.922;2022-09-06T07:36:39;101514.72;;;20.94;100.00
57568;BME280;43403;51.948;5.922;2022-09-06T07:39:06;101515.38;;;21.03;100.00
57568;BME280;43403;51.948;5.922;2022-09-06T07:41:32;101511.50;;;21.06;100.00
57568;BME280;43403;51.948;5.922;2022-09-06T07:43:59;101517.25;;;21.09;100.00
57568;BME280;43403;51.948;5.922;2022-09-06T07:46:25;101516.22;;;21.10;100.00
57568;BME280;43403;51.948;5.922;2022-09-06T07:48:51;101518.44;;;21.07;100.00
57568;BME280;43403;51.948;5.922;2022-09-06T07:51:18;101524.25;;;21.17;100.00
57568;BME280;43403;51.948;5.922;2022-09-06T07:53:47;101517.31;;;21.29;100.00
57568;BME280;43403;51.948;5.922;2022-09-06T07:56:18;101512.22;;;21.35;100.00
57568;BME280;43403;51.948;5.922;2022-09-06T07:58:45;101517.94;;;21.38;100.00
57568;BME280;43403;51.948;5.922;2022-09-06T08:03:44;101512.47;;;21.53;100.00
57568;BME280;43403;51.948;5.922;2022-09-06T08:06:11;101506.53;;;21.58;100.00
57568;BME280;43403;51.948;5.922;2022-09-06T08:08:37;101505.50;;;21.59;100.00
57568;BME280;43403;51.948;5.922;2022-09-06T08:11:24;101501.22;;;21.64;100.00
57568;BME280;43403;51.948;5.922;2022-09-06T08:13:52;101502.03;;;21.71;100.00
57568;BME280;43403;51.948;5.922;2022-09-06T08:16:20;101495.06;;;21.84;100.00
57568;BME280;43403;51.948;5.922;2022-09-06T08:18:50;101501.25;;;21.98;100.00
57568;BME280;43403;51.948;5.922;2022-09-06T08:21:17;101501.84;;;22.13;100.00
57568;BME280;43403;51.948;5.922;2022-09-06T08:23:48;101507.81;;;22.28;100.00
57568;BME280;43403;51.948;5.922;2022-09-06T08:26:15;101500.78;;;22.47;100.00
57568;BME280;43403;51.948;5.922;2022-09-06T08:28:41;101501.19;;;22.64;100.00
57568;BME280;43403;51.948;5.922;2022-09-06T08:31:09;101499.44;;;22.83;100.00
57568;BME280;43403;51.948;5.922;2022-09-06T08:33:35;101497.94;;;23.01;100.00
57568;BME280;43403;51.948;5.922;2022-09-06T08:36:02;101495.03;;;23.16;100.00
57568;BME280;43403;51.948;5.922;2022-09-06T08:38:29;101502.69;;;23.44;100.00
57568;BME280;43403;51.948;5.922;2022-09-06T08:41:04;101500.13;;;23.62;100.00
57568;BME280;43403;51.948;5.922;2022-09-06T08:43:33;101494.25;;;23.79;94.60
57568;BME280;43403;51.948;5.922;2022-09-06T08:45:59;101493.09;;;23.93;95.83
57568;BME280;43403;51.948;5.922;2022-09-06T08:48:28;101497.53;;;24.06;93.88
57568;BME280;43403;51.948;5.922;2022-09-06T08:51:21;101506.25;;;24.20;94.80
57568;BME280;43403;51.948;5.922;2022-09-06T08:53:56;101491.34;;;24.49;91.46
57568;BME280;43403;51.948;5.922;2022-09-06T08:56:30;101494.19;;;24.73;93.77
57568;BME280;43403;51.948;5.922;2022-09-06T08:59:06;101494.75;;;24.93;90.57
57568;BME280;43403;51.948;5.922;2022-09-06T09:01:40;101494.16;;;25.10;87.96
57568;BME280;43403;51.948;5.922;2022-09-06T09:04:11;101500.00;;;25.18;82.49
57568;BME280;43403;51.948;5.922;2022-09-06T09:06:39;101488.16;;;25.26;82.35
57568;BME280;43403;51.948;5.922;2022-09-06T09:09:11;101479.13;;;25.39;77.79
57568;BME280;43403;51.948;5.922;2022-09-06T09:11:40;101468.41;;;25.51;77.86
57568;BME280;43403;51.948;5.922;2022-09-06T09:14:18;101469.25;;;25.75;80.59
57568;BME280;43403;51.948;5.922;2022-09-06T09:16:49;101467.53;;;25.92;75.51
57568;BME280;43403;51.948;5.922;2022-09-06T09:19:15;101460.53;;;26.03;77.67
57568;BME280;43403;51.948;5.922;2022-09-06T09:21:41;101459.59;;;26.21;75.61
57568;BME280;43403;51.948;5.922;2022-09-06T09:24:09;101457.56;;;26.40;75.25
57568;BME280;43403;51.948;5.922;2022-09-06T09:29:06;101455.78;;;26.69;73.13
57568;BME280;43403;51.948;5.922;2022-09-06T09:31:34;101459.53;;;26.68;68.90
57568;BME280;43403;51.948;5.922;2022-09-06T09:34:01;101456.13;;;26.73;70.18
57568;BME280;43403;51.948;5.922;2022-09-06T09:36:30;101450.81;;;26.90;71.45
57568;BME280;43403;51.948;5.922;2022-09-06T09:38:56;101447.44;;;27.11;73.32
57568;BME280;43403;51.948;5.922;2022-09-06T09:41:28;101441.09;;;27.34;71.21
57568;BME280;43403;51.948;5.922;2022-09-06T09:44:02;101435.00;;;27.39;67.28
57568;BME280;43403;51.948;5.922;2022-09-06T09:46:31;101436.63;;;27.74;70.45
57568;BME280;43403;51.948;5.922;2022-09-06T09:49:03;101444.16;;;27.89;66.13
57568;BME280;43403;51.948;5.922;2022-09-06T09:51:31;101446.13;;;27.93;65.95
57568;BME280;43403;51.948;5.922;2022-09-06T09:54:02;101452.00;;;27.90;62.87
57568;BME280;43403;51.948;5.922;2022-09-06T09:56:33;101455.41;;;27.86;61.11
57568;BME280;43403;51.948;5.922;2022-09-06T09:59:05;101450.66;;;28.10;62.45
57568;BME280;43403;51.948;5.922;2022-09-06T10:01:33;101447.66;;;28.28;63.44
57568;BME280;43403;51.948;5.922;2022-09-06T10:04:01;101445.84;;;28.34;62.54
57568;BME280;43403;51.948;5.922;2022-09-06T10:06:48;101451.78;;;28.53;63.07
57568;BME280;43403;51.948;5.922;2022-09-06T10:09:35;101442.22;;;28.67;62.30
57568;BME280;43403;51.948;5.922;2022-09-06T10:12:02;101435.78;;;28.95;63.87
57568;BME280;43403;51.948;5.922;2022-09-06T10:14:32;101444.22;;;28.77;58.83
57568;BME280;43403;51.948;5.922;2022-09-06T10:17:04;101440.50;;;28.83;59.74
57568;BME280;43403;51.948;5.922;2022-09-06T10:19:38;101441.03;;;29.07;60.91
57568;BME280;43403;51.948;5.922;2022-09-06T10:22:09;101438.41;;;29.12;60.08
57568;BME280;43403;51.948;5.922;2022-09-06T10:24:48;101444.84;;;29.11;57.90
57568;BME280;43403;51.948;5.922;2022-09-06T10:27:20;101447.00;;;29.09;57.01
57568;BME280;43403;51.948;5.922;2022-09-06T10:29:57;101446.72;;;29.38;58.78
57568;BME280;43403;51.948;5.922;2022-09-06T10:40:05;101437.91;;;29.80;55.71
57568;BME280;43403;51.948;5.922;2022-09-06T10:42:43;101431.44;;;29.86;55.36
57568;BME280;43403;51.948;5.922;2022-09-06T10:48:06;101425.13;;;30.23;55.06
57568;BME280;43403;51.948;5.922;2022-09-06T10:50:47;101428.13;;;30.27;54.90
57568;BME280;43403;51.948;5.922;2022-09-06T10:53:17;101423.50;;;30.22;54.90
57568;BME280;43403;51.948;5.922;2022-09-06T10:55:55;101422.97;;;30.25;55.54
57568;BME280;43403;51.948;5.922;2022-09-06T10:58:27;101422.72;;;30.27;55.24
57568;BME280;43403;51.948;5.922;2022-09-06T11:01:22;101422.94;;;30.15;52.83
57568;BME280;43403;51.948;5.922;2022-09-06T11:03:51;101430.94;;;30.47;54.42
57568;BME280;43403;51.948;5.922;2022-09-06T11:06:28;101436.28;;;30.32;54.46
57568;BME280;43403;51.948;5.922;2022-09-06T11:08:59;101437.19;;;30.53;55.44
57568;BME280;43403;51.948;5.922;2022-09-06T11:11:30;101440.13;;;30.41;54.40
57568;BME280;43403;51.948;5.922;2022-09-06T11:14:02;101441.44;;;30.33;54.26
57568;BME280;43403;51.948;5.922;2022-09-06T11:16:31;101437.16;;;30.43;54.83
57568;BME280;43403;51.948;5.922;2022-09-06T11:19:11;101438.00;;;30.53;54.79
57568;BME280;43403;51.948;5.922;2022-09-06T11:22:05;101434.28;;;30.70;53.19
57568;BME280;43403;51.948;5.922;2022-09-06T11:24:47;101438.03;;;30.69;54.46
57568;BME280;43403;51.948;5.922;2022-09-06T11:27:20;101437.03;;;30.90;53.95
57568;BME280;43403;51.948;5.922;2022-09-06T11:29:51;101450.25;;;30.87;53.02
57568;BME280;43403;51.948;5.922;2022-09-06T11:32:26;101445.19;;;30.96;54.25
57568;BME280;43403;51.948;5.922;2022-09-06T11:34:54;101449.53;;;31.27;54.06
57568;BME280;43403;51.948;5.922;2022-09-06T11:37:25;101458.19;;;31.14;52.03
57568;BME280;43403;51.948;5.922;2022-09-06T11:51:03;101458.22;;;31.76;51.29
57568;BME280;43403;51.948;5.922;2022-09-06T11:56:30;101451.72;;;31.66;51.05
57568;BME280;43403;51.948;5.922;2022-09-06T12:04:21;101461.72;;;31.91;51.76
57568;BME280;43403;51.948;5.922;2022-09-06T12:07:10;101448.91;;;32.23;52.35
57568;BME280;43403;51.948;5.922;2022-09-06T12:09:38;101440.97;;;32.37;49.91
57568;BME280;43403;51.948;5.922;2022-09-06T12:12:05;101442.72;;;32.02;51.31
57568;BME280;43403;51.948;5.922;2022-09-06T12:14:34;101441.63;;;31.92;50.50
57568;BME280;43403;51.948;5.922;2022-09-06T12:19:40;101443.44;;;32.28;51.17
57568;BME280;43403;51.948;5.922;2022-09-06T12:25:17;101437.97;;;32.38;51.06
57568;BME280;43403;51.948;5.922;2022-09-06T12:27:54;101439.75;;;32.68;51.34
57568;BME280;43403;51.948;5.922;2022-09-06T12:30:37;101433.72;;;32.77;49.92
57568;BME280;43403;51.948;5.922;2022-09-06T12:33:05;101428.03;;;32.78;49.42
57568;BME280;43403;51.948;5.922;2022-09-06T12:35:32;101426.34;;;32.82;49.79
57568;BME280;43403;51.948;5.922;2022-09-06T12:38:23;101425.84;;;32.80;49.98
57568;BME280;43403;51.948;5.922;2022-09-06T12:40:50;101417.13;;;32.83;49.99
57568;BME280;43403;51.948;5.922;2022-09-06T12:43:21;101417.75;;;32.70;50.75
57568;BME280;43403;51.948;5.922;2022-09-06T12:45:49;101411.25;;;32.66;50.36
57568;BME280;43403;51.948;5.922;2022-09-06T12:53:28;101406.50;;;32.37;50.54
57568;BME280;43403;51.948;5.922;2022-09-06T12:56:03;101408.31;;;32.57;50.46
57568;BME280;43403;51.948;5.922;2022-09-06T12:58:30;101403.16;;;32.50;49.92
57568;BME280;43403;51.948;5.922;2022-09-06T13:00:59;101407.19;;;32.63;50.77
57568;BME280;43403;51.948;5.922;2022-09-06T13:05:56;101404.28;;;32.44;51.67
57568;BME280;43403;51.948;5.922;2022-09-06T13:08:30;101409.34;;;32.06;50.31
57568;BME280;43403;51.948;5.922;2022-09-06T13:10:58;101398.94;;;32.24;51.37
57568;BME280;43403;51.948;5.922;2022-09-06T13:13:25;101405.69;;;32.37;51.24
57568;BME280;43403;51.948;5.922;2022-09-06T13:15:52;101396.78;;;32.26;51.05
57568;BME280;43403;51.948;5.922;2022-09-06T13:20:55;101395.63;;;32.42;50.51
57568;BME280;43403;51.948;5.922;2022-09-06T13:23:22;101392.31;;;32.50;52.50
57568;BME280;43403;51.948;5.922;2022-09-06T13:25:49;101394.44;;;32.54;51.66
57568;BME280;43403;51.948;5.922;2022-09-06T13:28:29;101395.38;;;32.39;50.22
57568;BME280;43403;51.948;5.922;2022-09-06T13:31:00;101396.38;;;32.58;51.71
57568;BME280;43403;51.948;5.922;2022-09-06T13:33:28;101394.50;;;32.43;51.05
57568;BME280;43403;51.948;5.922;2022-09-06T13:38:31;101385.22;;;32.55;50.57
57568;BME280;43403;51.948;5.922;2022-09-06T13:40:59;101386.59;;;32.52;50.97
57568;BME280;43403;51.948;5.922;2022-09-06T13:43:43;101377.44;;;32.38;50.44
57568;BME280;43403;51.948;5.922;2022-09-06T13:46:10;101383.00;;;32.67;52.62
57568;BME280;43403;51.948;5.922;2022-09-06T13:48:36;101383.56;;;32.64;50.33
57568;BME280;43403;51.948;5.922;2022-09-06T13:51:05;101379.53;;;32.51;49.00
57568;BME280;43403;51.948;5.922;2022-09-06T13:53:32;101376.31;;;32.44;47.32
57568;BME280;43403;51.948;5.922;2022-09-06T13:55:59;101369.22;;;32.48;48.61
57568;BME280;43403;51.948;5.922;2022-09-06T13:58:25;101368.81;;;32.25;46.93
57568;BME280;43403;51.948;5.922;2022-09-06T14:00:52;101366.38;;;32.29;49.08
57568;BME280;43403;51.948;5.922;2022-09-06T14:03:20;101360.63;;;32.36;47.31
57568;BME280;43403;51.948;5.922;2022-09-06T14:05:47;101364.88;;;32.52;47.63
57568;BME280;43403;51.948;5.922;2022-09-06T14:08:14;101353.47;;;32.50;46.28
57568;BME280;43403;51.948;5.922;2022-09-06T14:10:40;101362.56;;;32.75;47.27
57568;BME280;43403;51.948;5.922;2022-09-06T14:13:07;101353.41;;;32.65;45.45
57568;BME280;43403;51.948;5.922;2022-09-06T14:15:34;101359.84;;;32.75;47.49